Time;durP1;ratioP1;P1;durP2;ratioP2;P2;SDS_P1;SDS_P2;PMS_P1;PMS_P2;Temp;Humidity;BMP_temperature;BMP_pressure;BME280_temperature;BME280_humidity;BME280_pressure;Samples;Min_cycle;Max_cycle;Signal;HPM_P1;HPM_P2
2022/05/25 00:01:12;;;;;;;;;;;13.80;99.90;;;;;;5116343;28;19908;-73
2022/05/25 00:03:39;;;;;;;;;;;13.80;99.90;;;;;;5116056;28;19947;-74
2022/05/25 00:06:07;;;;;;;;;;;13.90;99.90;;;;;;5116287;28;19912;-74
2022/05/25 00:08:33;;;;;;;;;;;14.00;99.90;;;;;;5116140;28;19908;-74
2022/05/25 00:11:00;;;;;;;;;;;14.10;99.90;;;;;;5116115;28;19907;-74
2022/05/25 00:13:27;;;;;;;;;;;14.10;99.90;;;;;;5116113;28;19919;-75
2022/05/25 00:15:54;;;;;;;;;;;14.10;99.90;;;;;;5115803;28;19947;-74
2022/05/25 00:18:21;;;;;;;;;;;14.20;99.90;;;;;;5115863;28;19907;-73
2022/05/25 00:20:48;;;;;;;;;;;14.30;99.90;;;;;;5115902;28;19908;-74
2022/05/25 00:23:14;;;;;;;;;;;14.30;99.90;;;;;;5115954;28;19995;-74
2022/05/25 00:25:41;;;;;;;;;;;14.30;99.90;;;;;;5115557;28;19908;-74
2022/05/25 00:28:09;;;;;;;;;;;14.30;99.90;;;;;;5115852;28;19908;-74
2022/05/25 00:30:36;;;;;;;;;;;14.30;99.90;;;;;;5115893;28;19908;-74
2022/05/25 00:33:03;;;;;;;;;;;14.40;99.90;;;;;;5115668;28;19920;-74
2022/05/25 00:35:30;;;;;;;;;;;14.50;99.90;;;;;;5115571;28;20354;-74
2022/05/25 00:37:58;;;;;;;;;;;14.60;99.90;;;;;;5115522;28;19912;-73
2022/05/25 00:40:28;;;;;;;;;;;14.60;99.90;;;;;;5115398;28;19962;-73
2022/05/25 00:42:55;;;;;;;;;;;14.60;99.90;;;;;;5115478;28;19908;-74
2022/05/25 00:45:21;;;;;;;;;;;14.70;99.90;;;;;;5115362;28;20052;-73
2022/05/25 00:47:49;;;;;;;;;;;14.70;99.90;;;;;;5115049;28;20385;-73
2022/05/25 00:50:17;;;;;;;;;;;14.70;99.90;;;;;;5115125;28;20278;-74
2022/05/25 00:52:45;;;;;;;;;;;14.80;99.90;;;;;;5113908;28;20296;-74
2022/05/25 00:55:14;;;;;;;;;;;14.90;99.90;;;;;;5115071;28;19915;-73
2022/05/25 00:57:47;;;;;;;;;;;15.00;99.90;;;;;;5114393;28;21405;-74
2022/05/25 01:00:14;;;;;;;;;;;15.20;99.90;;;;;;5115245;28;19927;-75
2022/05/25 01:02:42;;;;;;;;;;;15.30;99.90;;;;;;5115097;28;19976;-75
2022/05/25 01:05:15;;;;;;;;;;;15.50;99.90;;;;;;5090890;28;19922;-75
2022/05/25 01:07:41;;;;;;;;;;;15.80;99.90;;;;;;5076488;28;19916;-75
2022/05/25 01:10:26;;;;;;;;;;;16.00;99.90;;;;;;5114850;28;19908;-75
2022/05/25 01:13:00;;;;;;;;;;;16.20;99.90;;;;;;5114760;28;19908;-74
2022/05/25 01:15:40;;;;;;;;;;;16.30;99.90;;;;;;5114853;28;19916;-74
2022/05/25 01:18:09;;;;;;;;;;;16.30;99.90;;;;;;5114894;28;19915;-76
2022/05/25 01:20:42;;;;;;;;;;;16.40;99.90;;;;;;5114730;28;19908;-75
2022/05/25 01:23:15;;;;;;;;;;;16.40;99.90;;;;;;5114555;28;20354;-75
2022/05/25 01:25:44;;;;;;;;;;;16.30;99.90;;;;;;5114359;28;20306;-75
2022/05/25 01:28:19;;;;;;;;;;;16.30;99.90;;;;;;5114610;28;20248;-76
2022/05/25 01:30:48;;;;;;;;;;;16.20;99.90;;;;;;5114630;28;19908;-74
2022/05/25 01:33:19;;;;;;;;;;;16.40;99.90;;;;;;5114574;28;19955;-74
2022/05/25 01:35:48;;;;;;;;;;;16.40;99.90;;;;;;5114144;28;20345;-75
2022/05/25 01:38:19;;;;;;;;;;;16.40;99.90;;;;;;5113936;28;19914;-75
2022/05/25 01:40:58;;;;;;;;;;;16.30;99.90;;;;;;5114286;28;19908;-75
2022/05/25 01:43:29;;;;;;;;;;;16.40;99.90;;;;;;5114140;28;19908;-75
2022/05/25 01:46:03;;;;;;;;;;;16.40;99.90;;;;;;5114309;28;20349;-75
2022/05/25 01:48:30;;;;;;;;;;;16.40;99.90;;;;;;5114084;28;19954;-75
2022/05/25 01:50:59;;;;;;;;;;;16.40;99.90;;;;;;5113984;28;19919;-75
2022/05/25 01:53:29;;;;;;;;;;;16.40;99.90;;;;;;5113954;28;19964;-74
2022/05/25 01:55:58;;;;;;;;;;;16.40;99.90;;;;;;5114045;28;19912;-75
2022/05/25 01:58:26;;;;;;;;;;;16.40;99.90;;;;;;5114123;28;19908;-75
2022/05/25 02:00:58;;;;;;;;;;;16.50;99.90;;;;;;5114184;28;19995;-75
2022/05/25 02:06:10;;;;;;;;;;;16.60;99.90;;;;;;5114305;28;19915;-75
2022/05/25 02:08:42;;;;;;;;;;;16.60;99.90;;;;;;5113738;28;19919;-75
2022/05/25 02:11:16;;;;;;;;;;;16.60;99.90;;;;;;5113981;28;19907;-74
2022/05/25 02:13:54;;;;;;;;;;;16.70;99.90;;;;;;5113499;28;19911;-75
2022/05/25 02:16:30;;;;;;;;;;;16.80;99.90;;;;;;5113495;28;20276;-75
2022/05/25 02:19:11;;;;;;;;;;;16.80;99.90;;;;;;5089422;28;20310;-75
2022/05/25 02:21:58;;;;;;;;;;;16.90;99.90;;;;;;5073028;28;20363;-75
2022/05/25 02:24:29;;;;;;;;;;;17.00;99.90;;;;;;5073022;28;19962;-75
2022/05/25 02:27:09;;;;;;;;;;;16.90;99.90;;;;;;5073036;28;19908;-76
2022/05/25 02:29:41;;;;;;;;;;;16.80;99.90;;;;;;5072864;28;19987;-74
2022/05/25 02:32:09;;;;;;;;;;;16.80;99.90;;;;;;5073111;28;19932;-75
2022/05/25 02:34:38;;;;;;;;;;;16.80;99.90;;;;;;5072977;28;19989;-75
2022/05/25 02:37:05;;;;;;;;;;;16.90;99.90;;;;;;5073199;28;20401;-75
2022/05/25 02:39:32;;;;;;;;;;;16.90;99.90;;;;;;5072686;28;19908;-76
2022/05/25 02:41:59;;;;;;;;;;;16.80;99.90;;;;;;5073023;28;19915;-76
2022/05/25 02:44:26;;;;;;;;;;;16.70;99.90;;;;;;5072828;28;19983;-75
2022/05/25 02:46:53;;;;;;;;;;;16.70;99.90;;;;;;5091445;28;19952;-75
2022/05/25 02:49:19;;;;;;;;;;;16.70;99.90;;;;;;5092720;28;19908;-75
2022/05/25 02:51:46;;;;;;;;;;;16.70;99.90;;;;;;5092773;28;20388;-75
2022/05/25 02:54:13;;;;;;;;;;;16.80;99.90;;;;;;5092749;28;19923;-75
2022/05/25 02:56:40;;;;;;;;;;;16.80;99.90;;;;;;5093073;28;20016;-75
2022/05/25 02:59:06;;;;;;;;;;;17.10;99.90;;;;;;5093108;28;20357;-75
2022/05/25 03:01:33;;;;;;;;;;;17.30;99.90;;;;;;5092763;28;20309;-74
2022/05/25 03:04:00;;;;;;;;;;;17.40;99.90;;;;;;5093014;28;19915;-74
2022/05/25 03:06:26;;;;;;;;;;;17.50;99.90;;;;;;5093124;28;20290;-75
2022/05/25 03:08:53;;;;;;;;;;;17.50;99.90;;;;;;5092879;28;19909;-74
2022/05/25 03:11:20;;;;;;;;;;;17.40;99.90;;;;;;5092845;28;19908;-75
2022/05/25 03:13:48;;;;;;;;;;;17.20;99.90;;;;;;5092662;28;19916;-76
2022/05/25 03:16:16;;;;;;;;;;;17.10;99.90;;;;;;5093034;28;20053;-75
2022/05/25 03:18:43;;;;;;;;;;;17.00;99.90;;;;;;5093036;28;19915;-75
2022/05/25 03:21:09;;;;;;;;;;;17.00;99.90;;;;;;5092940;28;20422;-76
2022/05/25 03:23:36;;;;;;;;;;;17.00;99.90;;;;;;5092507;28;19909;-75
2022/05/25 03:26:03;;;;;;;;;;;17.00;99.90;;;;;;5091568;28;19908;-76
2022/05/25 03:28:30;;;;;;;;;;;16.90;99.90;;;;;;5094012;28;19996;-75
2022/05/25 03:30:56;;;;;;;;;;;16.90;99.90;;;;;;5096464;28;20135;-75
2022/05/25 03:33:23;;;;;;;;;;;17.00;99.90;;;;;;5096264;28;20282;-75
2022/05/25 03:35:50;;;;;;;;;;;17.00;99.90;;;;;;5095955;28;20378;-75
2022/05/25 03:38:17;;;;;;;;;;;17.20;99.90;;;;;;5096414;28;19966;-75
2022/05/25 03:40:43;;;;;;;;;;;17.30;99.90;;;;;;5096346;28;20011;-75
2022/05/25 03:43:11;;;;;;;;;;;17.20;99.90;;;;;;5096257;28;20296;-75
2022/05/25 03:45:38;;;;;;;;;;;17.30;99.90;;;;;;5096096;28;20065;-76
2022/05/25 03:48:07;;;;;;;;;;;17.30;99.90;;;;;;5096276;28;19913;-76
2022/05/25 03:50:34;;;;;;;;;;;17.20;99.90;;;;;;5096166;28;20306;-74
2022/05/25 03:53:01;;;;;;;;;;;17.30;99.90;;;;;;5095918;28;19916;-75
2022/05/25 03:55:28;;;;;;;;;;;17.20;99.90;;;;;;5096001;28;19950;-74
2022/05/25 03:57:55;;;;;;;;;;;17.30;99.90;;;;;;5095854;28;19996;-75
2022/05/25 04:00:21;;;;;;;;;;;17.20;99.90;;;;;;5095790;28;20045;-76
2022/05/25 04:02:48;;;;;;;;;;;17.30;99.90;;;;;;5095796;28;19934;-75
2022/05/25 04:05:15;;;;;;;;;;;17.30;99.90;;;;;;5095702;28;20372;-75
2022/05/25 04:07:46;;;;;;;;;;;17.30;99.90;;;;;;5095506;28;19908;-75
2022/05/25 04:10:17;;;;;;;;;;;17.30;99.90;;;;;;5095644;28;19954;-74
2022/05/25 04:12:44;;;;;;;;;;;17.30;99.90;;;;;;5095645;28;19915;-74
2022/05/25 04:15:12;;;;;;;;;;;17.40;99.90;;;;;;5095672;28;19916;-74
2022/05/25 04:17:39;;;;;;;;;;;17.50;99.90;;;;;;5095420;28;20259;-75
2022/05/25 04:20:06;;;;;;;;;;;17.50;99.90;;;;;;5095596;28;19918;-74
2022/05/25 04:22:34;;;;;;;;;;;17.50;99.90;;;;;;5095290;28;19947;-74
2022/05/25 04:25:02;;;;;;;;;;;17.40;99.90;;;;;;5095403;28;20351;-75
2022/05/25 04:27:29;;;;;;;;;;;17.30;99.90;;;;;;5095378;28;19908;-75
2022/05/25 04:29:55;;;;;;;;;;;17.30;99.90;;;;;;5094041;28;20002;-74
2022/05/25 04:32:22;;;;;;;;;;;17.20;99.90;;;;;;5095174;28;19908;-74
2022/05/25 04:34:48;;;;;;;;;;;17.20;99.90;;;;;;5095248;28;20367;-74
2022/05/25 04:40:14;;;;;;;;;;;17.10;99.90;;;;;;5070909;28;20007;-74
2022/05/25 04:42:43;;;;;;;;;;;17.00;99.90;;;;;;5094939;28;19915;-74
2022/05/25 04:45:10;;;;;;;;;;;16.90;99.90;;;;;;5095063;28;19909;-74
2022/05/25 04:47:37;;;;;;;;;;;16.80;99.90;;;;;;5094808;28;19977;-75
2022/05/25 04:50:07;;;;;;;;;;;16.80;99.90;;;;;;5094766;28;19908;-74
2022/05/25 04:52:37;;;;;;;;;;;16.70;99.90;;;;;;5094666;28;20304;-75
2022/05/25 04:55:04;;;;;;;;;;;16.70;99.90;;;;;;5094715;28;19923;-74
2022/05/25 04:57:31;;;;;;;;;;;16.70;99.90;;;;;;5076316;28;19915;-74
2022/05/25 04:59:59;;;;;;;;;;;16.60;99.90;;;;;;5094651;28;20386;-73
2022/05/25 05:02:26;;;;;;;;;;;16.60;99.90;;;;;;5094461;28;19923;-75
2022/05/25 05:04:53;;;;;;;;;;;16.60;99.90;;;;;;5094522;28;19915;-74
2022/05/25 05:07:28;;;;;;;;;;;16.70;99.90;;;;;;5094433;28;19908;-73
2022/05/25 05:09:55;;;;;;;;;;;16.60;99.90;;;;;;5094641;28;19940;-74
2022/05/25 05:12:21;;;;;;;;;;;16.60;99.90;;;;;;5094429;28;19987;-74
2022/05/25 05:14:48;;;;;;;;;;;16.60;99.90;;;;;;5094316;28;19969;-73
2022/05/25 05:17:15;;;;;;;;;;;16.60;99.90;;;;;;5075815;28;20294;-74
2022/05/25 05:19:41;;;;;;;;;;;16.60;99.90;;;;;;5093734;28;19945;-73
2022/05/25 05:22:08;;;;;;;;;;;16.50;99.90;;;;;;5093805;28;19965;-73
2022/05/25 05:24:35;;;;;;;;;;;16.60;99.90;;;;;;5094073;28;20329;-75
2022/05/25 05:27:01;;;;;;;;;;;16.50;99.90;;;;;;5094255;28;19934;-75
2022/05/25 05:29:30;;;;;;;;;;;16.60;99.90;;;;;;5094019;28;19908;-74
2022/05/25 05:31:58;;;;;;;;;;;16.50;99.90;;;;;;5094391;28;19908;-74
2022/05/25 05:34:28;;;;;;;;;;;16.50;99.90;;;;;;5093910;28;19923;-76
2022/05/25 05:36:58;;;;;;;;;;;16.50;99.90;;;;;;5093757;28;19966;-75
2022/05/25 05:39:27;;;;;;;;;;;16.50;99.90;;;;;;5093700;28;19912;-74
2022/05/25 05:41:57;;;;;;;;;;;16.50;99.90;;;;;;5093784;28;20278;-75
2022/05/25 05:44:26;;;;;;;;;;;16.60;99.90;;;;;;5093811;28;19908;-75
2022/05/25 05:46:54;;;;;;;;;;;16.60;99.90;;;;;;5093971;28;20354;-75
2022/05/25 05:49:22;;;;;;;;;;;16.50;99.90;;;;;;5093931;28;20323;-75
2022/05/25 05:51:48;;;;;;;;;;;16.50;99.90;;;;;;5093209;28;20026;-76
2022/05/25 05:54:16;;;;;;;;;;;16.60;99.90;;;;;;5093501;28;19916;-75
2022/05/25 05:56:43;;;;;;;;;;;16.60;99.90;;;;;;5093663;28;19908;-76
2022/05/25 05:59:10;;;;;;;;;;;16.60;99.90;;;;;;5093792;28;19908;-75
2022/05/25 06:01:36;;;;;;;;;;;16.60;99.90;;;;;;5093473;28;20383;-76
2022/05/25 06:04:03;;;;;;;;;;;16.60;99.90;;;;;;5093733;28;19961;-75
2022/05/25 06:06:30;;;;;;;;;;;16.60;99.90;;;;;;5093483;28;19908;-73
2022/05/25 06:08:57;;;;;;;;;;;16.50;99.90;;;;;;5093344;28;19917;-75
2022/05/25 06:11:24;;;;;;;;;;;16.50;99.90;;;;;;5093406;28;19912;-74
2022/05/25 06:13:51;;;;;;;;;;;16.60;99.90;;;;;;5093309;28;20370;-73
2022/05/25 06:21:47;;;;;;;;;;;16.50;99.90;;;;;;5093438;28;19919;-76
2022/05/25 06:24:14;;;;;;;;;;;16.50;99.90;;;;;;5093395;28;19999;-75
2022/05/25 06:26:40;;;;;;;;;;;16.40;99.90;;;;;;5093290;28;19959;-76
2022/05/25 06:29:07;;;;;;;;;;;16.40;99.90;;;;;;5093064;28;19912;-74
2022/05/25 06:31:34;;;;;;;;;;;16.40;99.90;;;;;;5093050;28;19959;-73
2022/05/25 06:34:00;;;;;;;;;;;16.40;99.90;;;;;;5093227;28;19912;-74
2022/05/25 06:36:28;;;;;;;;;;;16.30;99.90;;;;;;5093099;28;19923;-74
2022/05/25 06:38:55;;;;;;;;;;;16.30;99.90;;;;;;5093277;28;19909;-74
2022/05/25 06:41:22;;;;;;;;;;;16.20;99.90;;;;;;5092778;28;19994;-75
2022/05/25 06:43:49;;;;;;;;;;;16.10;99.90;;;;;;5079447;28;19919;-75
2022/05/25 06:46:19;;;;;;;;;;;16.10;99.90;;;;;;5075924;28;19916;-76
2022/05/25 06:48:46;;;;;;;;;;;16.10;99.90;;;;;;5071975;28;19979;-76
2022/05/25 06:51:14;;;;;;;;;;;16.10;99.90;;;;;;5070385;28;19963;-75
2022/05/25 06:53:41;;;;;;;;;;;16.00;99.90;;;;;;5069660;28;19970;-75
2022/05/25 06:56:08;;;;;;;;;;;16.00;99.90;;;;;;5069971;28;19912;-74
2022/05/25 06:58:34;;;;;;;;;;;16.00;99.90;;;;;;5069775;28;20456;-74
2022/05/25 07:01:01;;;;;;;;;;;15.90;99.90;;;;;;5069502;28;19951;-74
2022/05/25 07:03:28;;;;;;;;;;;15.90;99.90;;;;;;5071469;28;19919;-74
2022/05/25 07:05:55;;;;;;;;;;;15.90;99.90;;;;;;5073168;28;19912;-74
2022/05/25 07:08:21;;;;;;;;;;;15.90;99.90;;;;;;5073345;28;20381;-75
2022/05/25 07:10:48;;;;;;;;;;;15.80;99.90;;;;;;5073578;28;19908;-75
2022/05/25 07:13:15;;;;;;;;;;;15.80;99.90;;;;;;5073568;28;19942;-76
2022/05/25 07:15:43;;;;;;;;;;;15.70;99.90;;;;;;5073240;28;19912;-75
2022/05/25 07:18:09;;;;;;;;;;;15.70;99.90;;;;;;5072951;28;20357;-74
2022/05/25 07:20:36;;;;;;;;;;;15.70;99.90;;;;;;5073610;28;19916;-74
2022/05/25 07:23:03;;;;;;;;;;;15.80;99.90;;;;;;5073463;28;19909;-74
2022/05/25 07:25:30;;;;;;;;;;;15.70;99.90;;;;;;5084226;28;19908;-74
2022/05/25 07:27:56;;;;;;;;;;;15.70;99.90;;;;;;5093733;28;19916;-74
2022/05/25 07:30:23;;;;;;;;;;;15.60;99.90;;;;;;5093118;28;20007;-74
2022/05/25 07:32:49;;;;;;;;;;;15.60;99.90;;;;;;5093656;28;20357;-74
2022/05/25 07:35:17;;;;;;;;;;;15.50;99.90;;;;;;5093458;28;19916;-74
2022/05/25 07:37:46;;;;;;;;;;;15.40;99.90;;;;;;5093099;28;20328;-74
2022/05/25 07:40:18;;;;;;;;;;;15.40;99.90;;;;;;5093435;28;19935;-74
2022/05/25 07:42:48;;;;;;;;;;;15.40;99.90;;;;;;5093358;28;19912;-74
2022/05/25 07:45:14;;;;;;;;;;;15.40;99.90;;;;;;5092976;28;19912;-74
2022/05/25 07:47:41;;;;;;;;;;;15.40;99.90;;;;;;5093799;28;20003;-74
2022/05/25 07:50:08;;;;;;;;;;;15.50;99.90;;;;;;5093730;28;20006;-74
2022/05/25 07:52:36;;;;;;;;;;;15.60;99.90;;;;;;5093797;28;20355;-73
2022/05/25 07:55:03;;;;;;;;;;;15.60;99.90;;;;;;5093819;28;19983;-74
2022/05/25 07:57:30;;;;;;;;;;;15.60;99.90;;;;;;5093345;28;20410;-74
2022/05/25 07:59:56;;;;;;;;;;;15.50;99.90;;;;;;5093968;28;20315;-74
2022/05/25 08:08:00;;;;;;;;;;;15.50;99.90;;;;;;5093428;28;19934;-74
2022/05/25 08:10:27;;;;;;;;;;;15.40;99.90;;;;;;5093229;28;19913;-74
2022/05/25 08:12:57;;;;;;;;;;;15.40;99.90;;;;;;5093677;28;19919;-77
2022/05/25 08:15:25;;;;;;;;;;;15.30;99.90;;;;;;5092584;28;19912;-76
2022/05/25 08:17:51;;;;;;;;;;;15.20;99.90;;;;;;5093175;28;19938;-77
2022/05/25 08:20:19;;;;;;;;;;;15.20;99.90;;;;;;5093387;28;19909;-77
2022/05/25 08:22:46;;;;;;;;;;;15.20;99.90;;;;;;5083578;28;19912;-77
2022/05/25 08:25:13;;;;;;;;;;;15.20;99.90;;;;;;5083409;28;19909;-76
2022/05/25 08:27:40;;;;;;;;;;;15.20;99.90;;;;;;5071978;28;19916;-75
2022/05/25 08:30:08;;;;;;;;;;;15.30;99.90;;;;;;5071723;28;19909;-75
2022/05/25 08:32:34;;;;;;;;;;;15.20;99.90;;;;;;5072137;28;19909;-75
2022/05/25 08:35:01;;;;;;;;;;;15.20;99.90;;;;;;5072009;28;19920;-75
2022/05/25 08:37:28;;;;;;;;;;;15.20;99.90;;;;;;5071669;28;19920;-75
2022/05/25 08:39:54;;;;;;;;;;;15.10;99.90;;;;;;5072279;28;19908;-75
2022/05/25 08:42:22;;;;;;;;;;;15.10;99.90;;;;;;5104595;28;19952;-75
2022/05/25 08:44:49;;;;;;;;;;;15.20;99.90;;;;;;5071596;28;19908;-75
2022/05/25 08:47:16;;;;;;;;;;;15.10;99.90;;;;;;5071962;28;20416;-75
2022/05/25 08:49:45;;;;;;;;;;;15.10;99.90;;;;;;5071164;28;19909;-75
2022/05/25 08:52:37;;;;;;;;;;;15.10;99.90;;;;;;5071579;28;19920;-75
2022/05/25 08:55:07;;;;;;;;;;;15.10;99.90;;;;;;5069616;28;20386;-75
2022/05/25 08:57:36;;;;;;;;;;;15.00;99.90;;;;;;5071320;28;19959;-75
2022/05/25 09:00:06;;;;;;;;;;;15.10;99.90;;;;;;5071120;28;19958;-76
2022/05/25 09:02:52;;;;;;;;;;;15.10;99.90;;;;;;5071134;28;19912;-75
2022/05/25 09:05:40;;;;;;;;;;;15.00;99.90;;;;;;5071920;28;19969;-74
2022/05/25 09:08:33;;;;;;;;;;;14.90;99.90;;;;;;5073513;28;19920;-75
2022/05/25 09:11:04;;;;;;;;;;;14.90;99.90;;;;;;5057433;28;19954;-75
2022/05/25 09:14:06;;;;;;;;;;;14.90;99.90;;;;;;5072646;28;20278;-74
2022/05/25 09:16:34;;;;;;;;;;;14.90;99.90;;;;;;5031399;28;19915;-75
2022/05/25 09:19:03;;;;;;;;;;;14.90;99.90;;;;;;5064927;28;19954;-75
2022/05/25 09:21:36;;;;;;;;;;;14.90;99.90;;;;;;5073197;28;19912;-75
2022/05/25 09:24:14;;;;;;;;;;;14.80;99.90;;;;;;5073398;28;19915;-75
2022/05/25 09:26:42;;;;;;;;;;;14.90;99.90;;;;;;5073095;28;19978;-75
2022/05/25 09:29:10;;;;;;;;;;;14.80;99.90;;;;;;5073247;28;19931;-75
2022/05/25 09:32:02;;;;;;;;;;;14.80;99.90;;;;;;5073024;28;19962;-75
2022/05/25 09:34:32;;;;;;;;;;;14.80;99.90;;;;;;5071089;28;19916;-75
2022/05/25 09:37:08;;;;;;;;;;;14.80;99.90;;;;;;5073185;28;20287;-75
2022/05/25 09:39:38;;;;;;;;;;;14.80;99.90;;;;;;5100286;28;19907;-75
2022/05/25 09:42:06;;;;;;;;;;;14.90;99.90;;;;;;5114333;28;20010;-75
2022/05/25 09:44:33;;;;;;;;;;;14.90;99.90;;;;;;5114441;28;19939;-76
2022/05/25 09:47:00;;;;;;;;;;;14.90;99.90;;;;;;5114189;28;19930;-75
2022/05/25 09:49:28;;;;;;;;;;;14.90;99.90;;;;;;5114249;28;20393;-74
2022/05/25 09:51:55;;;;;;;;;;;14.90;99.90;;;;;;5113892;28;20282;-75
2022/05/25 09:54:36;;;;;;;;;;;14.90;99.90;;;;;;5114027;28;19920;-76
2022/05/25 09:57:03;;;;;;;;;;;14.90;99.90;;;;;;5114151;28;19934;-75
2022/05/25 09:59:34;;;;;;;;;;;14.90;99.90;;;;;;5113837;28;19907;-75
2022/05/25 10:02:02;;;;;;;;;;;14.90;99.90;;;;;;5114057;28;19984;-75
2022/05/25 10:04:51;;;;;;;;;;;14.90;99.90;;;;;;5113968;28;19922;-76
2022/05/25 10:07:20;;;;;;;;;;;14.80;99.90;;;;;;5113855;28;20369;-75
2022/05/25 10:09:49;;;;;;;;;;;14.80;99.90;;;;;;5113738;28;20231;-77
2022/05/25 10:12:25;;;;;;;;;;;14.80;99.90;;;;;;5113933;28;19955;-76
2022/05/25 10:14:57;;;;;;;;;;;14.80;99.90;;;;;;5113609;28;19950;-75
2022/05/25 10:17:49;;;;;;;;;;;14.80;99.90;;;;;;5113783;28;19961;-76
2022/05/25 10:20:34;;;;;;;;;;;14.80;99.90;;;;;;5110865;28;19929;-75
2022/05/25 10:23:07;;;;;;;;;;;14.80;99.90;;;;;;5113827;28;19908;-75
2022/05/25 10:25:34;;;;;;;;;;;14.80;99.90;;;;;;5113392;28;19908;-75
2022/05/25 10:28:02;;;;;;;;;;;14.80;99.90;;;;;;5113840;28;19907;-75
2022/05/25 10:39:12;;;;;;;;;;;14.80;99.90;;;;;;5115687;28;19941;-74
2022/05/25 10:41:39;;;;;;;;;;;14.70;99.90;;;;;;5117663;28;19907;-76
2022/05/25 10:44:15;;;;;;;;;;;14.70;99.90;;;;;;5117767;28;19908;-75
2022/05/25 10:46:47;;;;;;;;;;;14.70;99.90;;;;;;5117831;28;19930;-76
2022/05/25 10:49:20;;;;;;;;;;;14.70;99.90;;;;;;5117818;28;19915;-76
2022/05/25 10:51:50;;;;;;;;;;;14.70;99.90;;;;;;5117379;28;20447;-75
2022/05/25 10:57:45;;;;;;;;;;;14.70;99.90;;;;;;5117541;28;19953;-77
2022/05/25 11:00:16;;;;;;;;;;;14.70;99.90;;;;;;5054556;28;19915;-76
2022/05/25 11:02:49;;;;;;;;;;;14.70;99.90;;;;;;5102571;28;20350;-76
2022/05/25 11:05:23;;;;;;;;;;;14.70;99.90;;;;;;5117461;28;20014;-75
2022/05/25 11:07:52;;;;;;;;;;;14.60;99.90;;;;;;5117326;28;19931;-75
2022/05/25 11:10:18;;;;;;;;;;;14.60;99.90;;;;;;5117426;28;19915;-75
2022/05/25 11:13:11;;;;;;;;;;;14.60;99.90;;;;;;5117517;28;20358;-76
2022/05/25 11:16:01;;;;;;;;;;;14.50;99.90;;;;;;5117116;28;20339;-75
2022/05/25 11:18:40;;;;;;;;;;;14.50;99.90;;;;;;5088290;28;19912;-75
2022/05/25 11:21:22;;;;;;;;;;;14.50;99.90;;;;;;5117037;28;19915;-76
2022/05/25 11:23:59;;;;;;;;;;;14.50;99.90;;;;;;5116903;28;19912;-76
2022/05/25 11:26:49;;;;;;;;;;;14.50;99.90;;;;;;5117141;28;20350;-74
2022/05/25 11:29:29;;;;;;;;;;;14.50;99.90;;;;;;5108759;28;19939;-76
2022/05/25 11:32:13;;;;;;;;;;;14.40;99.90;;;;;;5116871;28;19908;-77
2022/05/25 11:34:58;;;;;;;;;;;14.50;99.90;;;;;;5116906;28;19997;-76
2022/05/25 11:37:32;;;;;;;;;;;14.50;99.90;;;;;;5116807;28;19908;-77
2022/05/25 11:40:17;;;;;;;;;;;14.50;99.90;;;;;;5085465;28;20291;-78
2022/05/25 11:42:54;;;;;;;;;;;14.40;99.90;;;;;;5081633;28;20071;-77
2022/05/25 11:45:39;;;;;;;;;;;14.40;99.90;;;;;;5075341;28;19909;-76
2022/05/25 11:48:13;;;;;;;;;;;14.40;99.90;;;;;;5074842;28;20406;-76
2022/05/25 11:50:49;;;;;;;;;;;14.40;99.90;;;;;;5074609;28;19981;-75
2022/05/25 11:53:34;;;;;;;;;;;14.30;99.90;;;;;;5074976;28;19915;-76
2022/05/25 11:56:00;;;;;;;;;;;14.30;99.90;;;;;;5075004;28;19908;-75
2022/05/25 11:58:47;;;;;;;;;;;14.30;99.90;;;;;;5075046;28;19919;-76
2022/05/25 12:01:26;;;;;;;;;;;14.30;99.90;;;;;;5074457;28;19948;-74
2022/05/25 12:04:06;;;;;;;;;;;14.20;99.90;;;;;;5074094;28;20377;-74
2022/05/25 12:06:33;;;;;;;;;;;14.20;99.90;;;;;;5074713;28;19924;-76
2022/05/25 12:09:15;;;;;;;;;;;14.30;99.90;;;;;;5074742;28;19909;-74
2022/05/25 12:11:41;;;;;;;;;;;14.20;99.90;;;;;;5074713;28;19909;-76
2022/05/25 12:14:26;;;;;;;;;;;14.20;99.90;;;;;;5074537;28;20382;-77
2022/05/25 12:16:54;;;;;;;;;;;14.20;99.90;;;;;;5074919;28;19913;-74
2022/05/25 12:19:26;;;;;;;;;;;14.10;99.90;;;;;;5073842;28;19991;-75
2022/05/25 12:22:03;;;;;;;;;;;14.20;99.90;;;;;;5074136;28;19954;-75
2022/05/25 12:24:40;;;;;;;;;;;14.10;99.90;;;;;;5074363;28;19962;-75
2022/05/25 12:27:12;;;;;;;;;;;14.20;99.90;;;;;;5074422;28;19953;-76
2022/05/25 12:29:53;;;;;;;;;;;14.10;99.90;;;;;;5074271;28;19962;-76
2022/05/25 12:32:19;;;;;;;;;;;14.10;99.90;;;;;;5073814;28;20383;-76
2022/05/25 12:34:53;;;;;;;;;;;14.10;99.90;;;;;;5074215;28;20019;-74
2022/05/25 12:37:24;;;;;;;;;;;14.00;99.90;;;;;;5074323;28;20314;-74
2022/05/25 12:39:50;;;;;;;;;;;14.00;99.90;;;;;;5074128;28;19954;-76
2022/05/25 12:42:23;;;;;;;;;;;14.10;99.90;;;;;;5074475;28;20286;-76
2022/05/25 12:50:36;;;;;;;;;;;14.00;99.90;;;;;;5074077;28;19920;-77
2022/05/25 12:53:21;;;;;;;;;;;13.90;99.90;;;;;;5073970;28;19909;-75
2022/05/25 12:55:57;;;;;;;;;;;13.90;99.90;;;;;;5074072;28;19978;-77
2022/05/25 12:58:33;;;;;;;;;;;13.90;99.90;;;;;;5073925;28;20373;-76
2022/05/25 13:01:08;;;;;;;;;;;13.90;99.90;;;;;;5073247;28;19909;-76
2022/05/25 13:03:39;;;;;;;;;;;13.90;99.90;;;;;;5073044;28;20327;-77
2022/05/25 13:06:06;;;;;;;;;;;13.90;99.90;;;;;;5074002;28;19931;-77
2022/05/25 13:08:51;;;;;;;;;;;13.80;99.90;;;;;;5073853;28;19915;-76
2022/05/25 13:11:31;;;;;;;;;;;13.80;99.90;;;;;;5073727;28;19950;-77
2022/05/25 13:13:59;;;;;;;;;;;13.80;99.90;;;;;;5073624;28;20358;-76
2022/05/25 13:16:41;;;;;;;;;;;13.80;99.90;;;;;;5073539;28;19947;-77
2022/05/25 13:19:20;;;;;;;;;;;13.80;99.90;;;;;;5073436;28;19913;-76
2022/05/25 13:21:53;;;;;;;;;;;13.70;99.90;;;;;;5073187;28;19939;-75
2022/05/25 13:24:20;;;;;;;;;;;13.70;99.90;;;;;;5074213;28;19931;-75
2022/05/25 13:26:50;;;;;;;;;;;13.70;99.90;;;;;;5074059;28;19931;-77
2022/05/25 13:29:24;;;;;;;;;;;13.70;99.90;;;;;;5074144;28;19996;-77
2022/05/25 13:31:57;;;;;;;;;;;13.70;99.90;;;;;;5073814;28;20007;-74
2022/05/25 13:34:24;;;;;;;;;;;13.70;99.90;;;;;;5073705;28;20290;-74
2022/05/25 13:36:55;;;;;;;;;;;13.70;99.90;;;;;;5073943;28;19912;-75
2022/05/25 13:39:24;;;;;;;;;;;13.60;99.90;;;;;;5073893;28;19920;-75
2022/05/25 13:41:50;;;;;;;;;;;13.60;99.90;;;;;;5073597;28;19912;-75
2022/05/25 13:44:22;;;;;;;;;;;13.60;99.90;;;;;;5073776;28;20047;-77
2022/05/25 13:46:56;;;;;;;;;;;13.60;99.90;;;;;;5073697;28;19909;-75
2022/05/25 13:49:23;;;;;;;;;;;13.60;99.90;;;;;;5073683;28;19913;-76
2022/05/25 13:51:50;;;;;;;;;;;13.60;99.90;;;;;;5073250;28;19921;-76
2022/05/25 13:54:21;;;;;;;;;;;13.60;99.90;;;;;;5073709;28;19966;-76
2022/05/25 13:56:48;;;;;;;;;;;13.60;99.90;;;;;;5073597;28;19936;-76
2022/05/25 13:59:17;;;;;;;;;;;13.50;99.90;;;;;;5073664;28;20283;-78
2022/05/25 14:01:43;;;;;;;;;;;13.50;99.90;;;;;;5073348;28;19908;-77
2022/05/25 14:04:21;;;;;;;;;;;13.50;99.90;;;;;;5073476;28;20000;-77
2022/05/25 14:06:48;;;;;;;;;;;13.50;99.90;;;;;;5073515;28;19920;-78
2022/05/25 14:11:59;;;;;;;;;;;13.50;99.90;;;;;;5073360;28;20303;-78
2022/05/25 14:14:30;;;;;;;;;;;13.60;99.90;;;;;;5072736;28;19917;-77
2022/05/25 14:17:03;;;;;;;;;;;13.60;99.90;;;;;;5073683;28;20370;-78
2022/05/25 14:19:35;;;;;;;;;;;13.60;99.90;;;;;;5073241;28;20008;-76
2022/05/25 14:22:05;;;;;;;;;;;13.60;99.90;;;;;;5073495;28;19954;-77
2022/05/25 14:24:33;;;;;;;;;;;13.50;99.90;;;;;;5073531;28;19908;-77
2022/05/25 14:27:06;;;;;;;;;;;13.60;99.90;;;;;;5073399;28;19954;-77
2022/05/25 14:29:33;;;;;;;;;;;13.50;99.90;;;;;;5073217;28;20315;-77
2022/05/25 14:32:13;;;;;;;;;;;13.50;99.90;;;;;;5073268;28;19909;-77
2022/05/25 14:34:45;;;;;;;;;;;13.50;99.90;;;;;;5073142;28;19951;-77
2022/05/25 14:37:12;;;;;;;;;;;13.40;99.90;;;;;;5073310;28;19909;-77
2022/05/25 14:39:40;;;;;;;;;;;13.40;99.90;;;;;;5072999;28;19908;-78
2022/05/25 14:42:09;;;;;;;;;;;13.40;99.90;;;;;;5073197;28;20427;-77
2022/05/25 14:44:42;;;;;;;;;;;13.40;99.90;;;;;;5073247;28;19999;-78
2022/05/25 14:47:18;;;;;;;;;;;13.40;99.90;;;;;;5073210;28;19909;-77
2022/05/25 14:50:07;;;;;;;;;;;13.40;99.90;;;;;;5072886;28;19931;-78
2022/05/25 14:52:34;;;;;;;;;;;13.40;99.90;;;;;;5073133;28;20298;-77
2022/05/25 14:55:30;;;;;;;;;;;13.40;99.90;;;;;;5073023;28;19961;-77
2022/05/25 14:58:20;;;;;;;;;;;13.40;99.90;;;;;;5068204;28;19909;-78
2022/05/25 15:00:46;;;;;;;;;;;13.40;99.90;;;;;;5073066;28;19950;-77
2022/05/25 15:03:27;;;;;;;;;;;13.40;99.90;;;;;;5073016;28;19947;-77
2022/05/25 15:05:59;;;;;;;;;;;13.40;99.90;;;;;;5072612;28;19909;-77
2022/05/25 15:08:31;;;;;;;;;;;13.30;99.90;;;;;;5073024;28;19912;-77
2022/05/25 15:11:17;;;;;;;;;;;13.40;99.90;;;;;;5072943;28;20332;-77
2022/05/25 15:19:41;;;;;;;;;;;13.30;99.90;;;;;;5072572;28;19954;-78